Time;durP1;ratioP1;P1;durP2;ratioP2;P2;SDS_P1;SDS_P2;PMS_P1;PMS_P2;Temp;Humidity;BMP_temperature;BMP_pressure;BME280_temperature;BME280_humidity;BME280_pressure;Samples;Min_cycle;Max_cycle;Signal;HPM_P1;HPM_P2
2021/01/02 18:44:02;;;;;;;28.33;20.10;;;-0.10;99.90;;;;;;4974120;27;3135452;-89
2021/01/02 18:46:34;;;;;;;29.05;20.83;;;-0.20;99.90;;;;;;5074884;28;20395;-85
2021/01/02 18:49:00;;;;;;;26.73;18.00;;;-0.10;99.90;;;;;;5035667;28;20436;-87
2021/01/02 18:51:36;;;;;;;24.17;16.90;;;-0.20;99.90;;;;;;5054903;28;20389;-87
2021/01/02 18:54:08;;;;;;;22.13;17.02;;;-0.10;99.90;;;;;;5089080;28;20416;-87
2021/01/02 18:56:35;;;;;;;23.10;16.05;;;0.00;99.90;;;;;;5067415;28;20411;-90
2021/01/02 18:59:06;;;;;;;23.33;15.85;;;0.00;99.90;;;;;;5046364;23;20428;-74
2021/01/02 19:01:42;;;;;;;24.02;15.88;;;0.10;99.90;;;;;;5016178;28;20382;-74
2021/01/02 19:04:09;;;;;;;20.55;14.10;;;0.20;99.90;;;;;;5003196;28;20894;-77
2021/01/02 19:06:34;;;;;;;17.20;14.35;;;0.20;99.90;;;;;;5027527;28;20398;-77
2021/01/02 19:09:00;;;;;;;19.58;14.30;;;0.30;99.90;;;;;;5044244;28;20550;-87
2021/01/02 19:11:26;;;;;;;19.43;15.07;;;0.40;99.90;;;;;;5022949;28;20445;-76
2021/01/02 19:13:52;;;;;;;17.95;14.02;;;0.30;99.90;;;;;;5025213;28;20390;-83
2021/01/02 19:16:23;;;;;;;17.35;13.20;;;0.40;99.90;;;;;;4999205;28;20472;-86
2021/01/02 19:18:50;;;;;;;18.30;13.90;;;0.40;99.90;;;;;;5036061;28;20918;-81
2021/01/02 19:21:16;;;;;;;18.42;13.18;;;0.40;99.90;;;;;;5020913;28;20451;-85
2021/01/02 19:23:42;;;;;;;17.38;14.25;;;0.50;99.90;;;;;;5024406;28;20498;-79
2021/01/02 19:26:08;;;;;;;18.13;14.30;;;0.40;99.90;;;;;;5045507;28;20661;-83
2021/01/02 19:28:34;;;;;;;18.07;13.60;;;0.50;99.90;;;;;;5029994;28;20464;-78
2021/01/02 19:31:00;;;;;;;19.02;14.52;;;0.50;99.90;;;;;;5044452;28;20401;-78
2021/01/02 19:33:26;;;;;;;20.58;14.00;;;0.50;99.90;;;;;;5042283;28;20407;-82
2021/01/02 19:35:52;;;;;;;22.63;15.13;;;0.60;99.90;;;;;;4990017;28;20410;-82
2021/01/02 19:38:18;;;;;;;19.30;14.07;;;0.60;99.90;;;;;;5023499;28;20391;-88
2021/01/02 19:40:44;;;;;;;19.42;14.15;;;0.60;99.90;;;;;;5003802;28;20409;-79
2021/01/02 19:43:12;;;;;;;19.93;14.90;;;0.70;99.90;;;;;;5007289;28;20437;-79
2021/01/02 19:45:39;;;;;;;20.77;14.48;;;0.60;99.90;;;;;;5052030;28;20387;-80
2021/01/02 19:48:06;;;;;;;22.03;14.90;;;0.60;99.90;;;;;;5010524;28;20805;-79
2021/01/02 19:50:32;;;;;;;22.15;15.20;;;0.60;99.90;;;;;;5010449;28;20968;-80
2021/01/02 19:52:57;;;;;;;20.37;15.50;;;0.60;99.90;;;;;;5010881;28;20441;-84
2021/01/02 19:55:23;;;;;;;21.35;14.90;;;0.60;99.90;;;;;;4992487;28;20435;-78
2021/01/02 19:57:49;;;;;;;24.55;16.83;;;0.60;99.90;;;;;;4995114;28;20398;-81
2021/01/02 20:00:15;;;;;;;22.93;15.70;;;0.60;99.90;;;;;;4996803;28;20396;-84
2021/01/02 20:02:40;;;;;;;22.52;16.48;;;0.60;99.90;;;;;;4997265;28;20428;-78
2021/01/02 20:05:09;;;;;;;23.80;16.73;;;0.70;99.90;;;;;;5012380;28;20435;-78
2021/01/02 20:07:35;;;;;;;22.27;15.60;;;0.60;99.90;;;;;;5015619;28;20395;-78
2021/01/02 20:10:01;;;;;;;27.27;18.60;;;0.60;99.90;;;;;;5013368;28;20399;-84
2021/01/02 20:12:26;;;;;;;26.10;17.50;;;0.60;99.90;;;;;;5016806;28;20393;-78
2021/01/02 20:14:58;;;;;;;25.83;18.20;;;0.60;99.90;;;;;;5000689;28;20456;-79
2021/01/02 20:17:26;;;;;;;28.13;17.83;;;0.60;99.90;;;;;;5015511;28;20402;-76
2021/01/02 20:19:52;;;;;;;27.92;18.92;;;0.60;99.90;;;;;;5012744;28;20453;-80
2021/01/02 20:22:18;;;;;;;29.90;19.33;;;0.60;99.90;;;;;;5001712;28;20921;-79
2021/01/02 20:24:46;;;;;;;26.83;18.07;;;0.60;99.90;;;;;;4992353;28;20395;-78
2021/01/02 20:27:15;;;;;;;29.38;19.67;;;0.60;99.90;;;;;;5012482;28;20399;-81
2021/01/02 20:29:41;;;;;;;31.90;19.98;;;0.60;99.90;;;;;;4997288;28;20393;-77
2021/01/02 20:32:14;;;;;;;28.58;18.98;;;0.60;99.90;;;;;;5001584;28;20474;-79
2021/01/02 20:34:42;;;;;;;25.87;18.83;;;0.50;99.90;;;;;;5012901;28;20400;-80
2021/01/02 20:37:08;;;;;;;27.67;19.17;;;0.60;99.90;;;;;;5012702;28;20429;-81
2021/01/02 20:39:34;;;;;;;27.27;18.23;;;0.60;99.90;;;;;;5028496;28;20391;-79
2021/01/02 20:42:04;;;;;;;30.57;20.70;;;0.60;99.90;;;;;;5027226;28;20989;-77
2021/01/02 20:44:30;;;;;;;27.80;19.13;;;0.70;99.90;;;;;;5014043;28;20465;-79
2021/01/02 20:47:01;;;;;;;29.07;20.87;;;0.70;99.90;;;;;;4992757;28;20492;-79
2021/01/02 20:49:27;;;;;;;28.52;20.08;;;0.70;99.90;;;;;;5028286;28;20441;-75
2021/01/02 20:51:54;;;;;;;31.30;20.45;;;0.70;99.90;;;;;;5011298;28;20410;-78
2021/01/02 20:54:20;;;;;;;35.17;22.17;;;0.70;99.90;;;;;;4996849;28;20447;-81
2021/01/02 20:56:46;;;;;;;31.13;20.53;;;0.70;99.90;;;;;;4992789;28;20475;-79
2021/01/02 20:59:13;;;;;;;29.90;20.97;;;0.70;99.90;;;;;;5008363;28;21033;-80
2021/01/02 21:01:46;;;;;;;28.45;21.48;;;0.70;99.90;;;;;;5009994;28;20475;-80
2021/01/02 21:04:13;;;;;;;27.25;20.50;;;0.70;99.90;;;;;;5010957;28;20468;-79
2021/01/02 21:06:39;;;;;;;32.25;20.80;;;0.70;99.90;;;;;;4996165;28;20426;-77
2021/01/02 21:09:07;;;;;;;31.23;20.50;;;0.70;99.90;;;;;;5013107;28;20502;-78
2021/01/02 21:11:35;;;;;;;29.17;20.42;;;0.70;99.90;;;;;;5014444;28;20395;-79
2021/01/02 21:14:02;;;;;;;33.50;21.40;;;0.70;99.90;;;;;;4996604;28;20414;-82
2021/01/02 21:16:29;;;;;;;27.80;19.92;;;0.70;99.90;;;;;;5030242;28;20541;-80
2021/01/02 21:18:55;;;;;;;32.33;21.10;;;0.70;99.90;;;;;;5025364;28;20401;-85
2021/01/02 21:21:28;;;;;;;34.97;22.90;;;0.70;99.90;;;;;;5034156;28;20403;-82
2021/01/02 21:23:55;;;;;;;33.58;23.23;;;0.80;99.90;;;;;;5014625;28;20413;-81
2021/01/02 21:26:23;;;;;;;33.92;23.15;;;0.70;99.90;;;;;;5035230;28;21004;-83
2021/01/02 21:28:48;;;;;;;35.53;21.25;;;0.70;99.90;;;;;;5033857;28;20414;-82
2021/01/02 21:31:14;;;;;;;31.42;22.13;;;0.70;99.90;;;;;;5017920;28;20395;-84
2021/01/02 21:33:43;;;;;;;33.85;22.70;;;0.60;99.90;;;;;;5016067;28;20407;-79
2021/01/02 21:36:10;;;;;;;32.60;22.27;;;0.60;99.90;;;;;;5029576;28;20422;-81
2021/01/02 21:38:36;;;;;;;32.40;21.45;;;0.60;99.90;;;;;;5033848;28;20431;-80
2021/01/02 21:41:02;;;;;;;30.63;22.30;;;0.50;99.90;;;;;;5001559;28;21113;-81
2021/01/02 21:43:33;;;;;;;31.42;21.60;;;0.70;99.90;;;;;;5017489;28;20414;-79
2021/01/02 21:45:59;;;;;;;31.87;22.13;;;0.70;99.90;;;;;;5020610;28;20456;-81
2021/01/02 21:48:25;;;;;;;32.83;22.27;;;0.70;99.90;;;;;;5007775;28;20399;-78
2021/01/02 21:50:50;;;;;;;35.28;22.58;;;0.70;99.90;;;;;;5037094;28;20449;-79
2021/01/02 21:53:16;;;;;;;33.53;22.20;;;0.60;99.90;;;;;;4999864;28;20406;-83
2021/01/02 21:55:42;;;;;;;32.08;21.77;;;0.70;99.90;;;;;;5026948;28;20415;-82
2021/01/02 21:58:08;;;;;;;36.27;23.50;;;0.60;99.90;;;;;;5011797;28;20441;-78
2021/01/02 22:00:33;;;;;;;32.13;22.57;;;0.60;99.90;;;;;;5014617;28;20414;-80
2021/01/02 22:02:59;;;;;;;31.35;22.30;;;0.60;99.90;;;;;;4998540;28;20407;-82
2021/01/02 22:05:25;;;;;;;33.13;22.77;;;0.70;99.90;;;;;;5008820;28;20888;-75
2021/01/02 22:07:51;;;;;;;28.90;20.13;;;0.70;99.90;;;;;;5024720;28;20391;-78
2021/01/02 22:10:24;;;;;;;33.35;21.95;;;0.70;99.90;;;;;;5013092;28;20395;-81
2021/01/02 22:12:50;;;;;;;34.35;21.83;;;0.70;99.90;;;;;;4992787;28;20561;-77
2021/01/02 22:15:16;;;;;;;29.63;20.60;;;0.70;99.90;;;;;;4990214;28;20930;-80
2021/01/02 22:17:42;;;;;;;33.45;20.90;;;0.70;99.90;;;;;;4987097;28;20413;-83
2021/01/02 22:20:09;;;;;;;31.52;20.35;;;0.70;99.90;;;;;;5007562;28;20391;-81
2021/01/02 22:22:37;;;;;;;30.75;20.20;;;0.70;99.90;;;;;;5013870;28;20411;-82
2021/01/02 22:25:03;;;;;;;31.88;21.55;;;0.70;99.90;;;;;;4997378;28;20374;-87
2021/01/02 22:27:29;;;;;;;32.00;20.27;;;0.70;99.90;;;;;;5003920;28;20510;-85
2021/01/02 22:29:55;;;;;;;28.83;19.63;;;0.70;99.90;;;;;;4970689;28;20975;-80
2021/01/02 22:32:21;;;;;;;28.17;20.25;;;0.70;99.90;;;;;;5030845;28;20764;-89
2021/01/02 22:34:47;;;;;;;28.90;19.17;;;0.70;99.90;;;;;;5029140;28;20407;-86
2021/01/02 22:37:13;;;;;;;26.13;19.60;;;0.70;99.90;;;;;;4981496;28;20400;-79
2021/01/02 22:39:39;;;;;;;24.25;17.67;;;0.60;99.90;;;;;;5010374;28;20445;-86
2021/01/02 22:42:06;;;;;;;24.63;17.00;;;0.90;99.90;;;;;;4996360;28;20913;-86
2021/01/02 22:44:32;;;;;;;28.65;18.77;;;0.70;99.90;;;;;;4995935;28;21197;-85
2021/01/02 22:46:59;;;;;;;28.45;18.25;;;0.70;99.90;;;;;;4995749;28;20395;-81
2021/01/02 22:49:25;;;;;;;24.92;17.25;;;0.60;99.90;;;;;;5029432;28;20444;-84
2021/01/02 22:51:58;;;;;;;24.70;17.15;;;0.70;99.90;;;;;;5012717;28;20403;-81
2021/01/02 22:54:24;;;;;;;23.83;16.27;;;0.70;99.90;;;;;;4997241;28;20391;-86
2021/01/02 22:57:00;;;;;;;25.23;16.73;;;0.70;99.90;;;;;;4994057;28;20459;-87
2021/01/02 22:59:26;;;;;;;25.08;17.73;;;0.70;99.90;;;;;;5000431;28;20403;-83
2021/01/02 23:01:52;;;;;;;24.33;17.10;;;0.70;99.90;;;;;;4996353;28;20449;-89
2021/01/02 23:04:18;;;;;;;24.58;17.00;;;0.70;99.90;;;;;;5009823;28;20400;-83
2021/01/02 23:06:46;;;;;;;20.57;15.23;;;0.70;99.90;;;;;;5028863;28;20386;-84
2021/01/02 23:09:12;;;;;;;21.50;14.00;;;0.70;99.90;;;;;;5011069;28;20403;-79
2021/01/02 23:11:43;;;;;;;21.60;15.57;;;0.70;99.90;;;;;;5013953;28;20421;-80
2021/01/02 23:14:09;;;;;;;19.90;15.35;;;0.70;99.90;;;;;;5011296;28;20739;-78
2021/01/02 23:16:38;;;;;;;22.05;14.98;;;0.70;99.90;;;;;;5012987;28;20907;-81
2021/01/02 23:19:18;;;;;;;20.67;14.45;;;0.70;99.90;;;;;;5005426;28;20391;-84
2021/01/02 23:21:53;;;;;;;21.00;15.48;;;0.80;99.90;;;;;;5012661;28;20434;-83
2021/01/02 23:24:19;;;;;;;19.52;15.25;;;0.70;99.90;;;;;;5024054;28;20400;-83
2021/01/02 23:26:55;;;;;;;19.73;14.15;;;0.70;99.90;;;;;;5038890;28;20410;-75
2021/01/02 23:29:21;;;;;;;20.85;15.23;;;0.70;99.90;;;;;;4996592;28;20399;-87
2021/01/02 23:31:47;;;;;;;20.27;13.52;;;0.70;99.90;;;;;;4999483;28;20391;-82
2021/01/02 23:34:13;;;;;;;19.80;14.50;;;0.80;99.90;;;;;;5001626;28;20399;-88
2021/01/02 23:36:39;;;;;;;17.02;13.38;;;0.70;99.90;;;;;;5013707;28;20453;-81
2021/01/02 23:39:05;;;;;;;21.20;15.10;;;0.70;99.90;;;;;;5015462;28;20395;-81
2021/01/02 23:41:34;;;;;;;23.00;15.18;;;0.70;99.90;;;;;;4997110;28;20436;-77
2021/01/02 23:44:00;;;;;;;22.30;14.88;;;0.70;99.90;;;;;;5005751;28;20407;-83
2021/01/02 23:46:26;;;;;;;21.80;15.60;;;0.70;99.90;;;;;;4999528;28;20462;-85
2021/01/02 23:48:56;;;;;;;20.42;13.70;;;0.70;99.90;;;;;;5000487;28;20407;-86
2021/01/02 23:51:22;;;;;;;22.05;15.30;;;0.70;99.90;;;;;;5027134;28;20391;-77
2021/01/02 23:53:48;;;;;;;22.70;14.85;;;0.70;99.90;;;;;;4980268;28;20808;-77
2021/01/02 23:56:14;;;;;;;21.40;14.93;;;0.70;99.90;;;;;;5016263;28;20404;-83
2021/01/02 23:58:52;;;;;;;19.90;14.20;;;0.70;99.90;;;;;;4982350;28;20406;-82
